Time;durP1;ratioP1;P1;durP2;ratioP2;P2;SDS_P1;SDS_P2;PMS_P1;PMS_P2;Temp;Humidity;BMP_temperature;BMP_pressure;BME280_temperature;BME280_humidity;BME280_pressure;Samples;Min_cycle;Max_cycle;Signal;HPM_P1;HPM_P2
2022/07/22 00:01:04;;;;;;;13.47;10.67;;;;;;;21.10;84.43;98507.84;4110789;28;21061;-82
2022/07/22 00:03:07;;;;;;;12.10;10.90;;;;;;;21.08;86.15;98507.19;4111739;28;20665;-82
2022/07/22 00:05:11;;;;;;;12.47;11.17;;;;;;;21.05;85.38;98512.81;4123576;28;21071;-82
2022/07/22 00:07:15;;;;;;;13.27;11.10;;;;;;;21.03;85.00;98509.50;4111575;28;20758;-82
2022/07/22 00:09:19;;;;;;;11.87;10.77;;;;;;;21.02;85.17;98509.66;4114025;28;21276;-82
2022/07/22 00:11:23;;;;;;;14.03;11.23;;;;;;;20.99;85.13;98507.31;4125846;28;20664;-82
2022/07/22 00:13:26;;;;;;;12.93;11.67;;;;;;;20.96;85.02;98510.28;4110970;28;20651;-82
2022/07/22 00:15:29;;;;;;;11.40;10.40;;;;;;;20.93;86.01;98503.47;4126093;28;20674;-82
2022/07/22 00:17:33;;;;;;;11.70;10.47;;;;;;;20.92;86.27;98506.28;4109641;28;20730;-82
2022/07/22 00:19:37;;;;;;;11.40;10.20;;;;;;;20.89;85.84;98507.41;4124338;28;20677;-82
2022/07/22 00:21:40;;;;;;;12.13;10.97;;;;;;;20.86;85.69;98507.75;4108435;28;20680;-82
2022/07/22 00:23:43;;;;;;;12.10;10.90;;;;;;;20.84;84.88;98503.59;4106852;28;20632;-82
2022/07/22 00:25:47;;;;;;;11.73;10.53;;;;;;;20.79;86.69;98495.25;4126331;28;21251;-82
2022/07/22 00:27:51;;;;;;;12.10;10.90;;;;;;;20.77;86.00;98496.44;4111242;28;20743;-82
2022/07/22 00:29:54;;;;;;;11.97;10.77;;;;;;;20.73;87.19;98506.50;4124966;28;20723;-82
2022/07/22 00:31:57;;;;;;;13.30;12.00;;;;;;;20.72;85.50;98504.00;4114238;28;20682;-82
2022/07/22 00:34:01;;;;;;;11.90;10.70;;;;;;;20.71;86.71;98505.84;4109852;28;21205;-82
2022/07/22 00:36:06;;;;;;;12.63;11.10;;;;;;;20.70;85.57;98498.03;4127177;28;20733;-82
2022/07/22 00:38:09;;;;;;;12.53;11.23;;;;;;;20.67;87.23;98493.00;4108120;28;21005;-82
2022/07/22 00:40:12;;;;;;;12.37;11.00;;;;;;;20.68;87.14;98492.88;4110297;28;20641;-82
2022/07/22 00:42:17;;;;;;;11.40;10.30;;;;;;;20.65;85.52;98492.34;4095170;28;20649;-82
2022/07/22 00:44:25;;;;;;;11.13;10.13;;;;;;;20.60;85.60;98495.47;4106931;28;20686;-82
2022/07/22 00:46:29;;;;;;;11.90;10.70;;;;;;;20.53;86.62;98494.41;4111108;28;20732;-82
2022/07/22 00:48:33;;;;;;;11.37;10.27;;;;;;;20.48;86.10;98496.72;4123895;28;20913;-82
2022/07/22 00:50:36;;;;;;;12.40;11.30;;;;;;;20.45;86.23;98490.91;4110262;28;20703;-82
2022/07/22 00:52:39;;;;;;;12.83;11.50;;;;;;;20.42;86.52;98489.38;4126533;28;21045;-82
2022/07/22 00:54:42;;;;;;;11.80;10.70;;;;;;;20.41;87.12;98490.38;4122525;28;21234;-82
2022/07/22 00:56:45;;;;;;;12.67;11.33;;;;;;;20.37;87.79;98496.97;4126360;28;20643;-82
2022/07/22 00:58:52;;;;;;;13.30;11.90;;;;;;;20.36;87.62;98497.13;4111905;28;20660;-82
2022/07/22 01:00:56;;;;;;;12.63;11.47;;;;;;;20.34;85.91;98489.34;4108744;28;20660;-82
2022/07/22 01:02:59;;;;;;;12.33;11.00;;;;;;;20.32;87.11;98485.16;4106778;28;20617;-82
2022/07/22 01:05:02;;;;;;;12.73;11.43;;;;;;;20.26;87.63;98484.97;4122167;28;21054;-82
2022/07/22 01:07:05;;;;;;;12.97;11.77;;;;;;;20.21;86.84;98492.56;4124364;28;20669;-82
2022/07/22 01:09:08;;;;;;;12.93;11.53;;;;;;;20.16;86.57;98489.50;4124939;28;20726;-82
2022/07/22 01:11:13;;;;;;;12.70;11.50;;;;;;;20.15;87.79;98491.34;4124798;28;20631;-82
2022/07/22 01:13:16;;;;;;;13.27;11.47;;;;;;;20.14;87.53;98496.78;4109875;28;20670;-82
2022/07/22 01:15:21;;;;;;;12.97;11.63;;;;;;;20.14;86.95;98486.19;4122130;28;20640;-82
2022/07/22 01:17:24;;;;;;;12.87;11.60;;;;;;;20.13;88.01;98484.53;4111862;28;20642;-82
2022/07/22 01:19:32;;;;;;;11.90;10.80;;;;;;;20.07;86.58;98480.69;4126058;28;20638;-82
2022/07/22 01:21:37;;;;;;;12.80;11.60;;;;;;;20.01;86.69;98480.44;4122249;28;20657;-82
2022/07/22 01:23:41;;;;;;;15.03;13.47;;;;;;;19.95;86.72;98486.34;4095384;28;20649;-82
2022/07/22 01:25:44;;;;;;;12.37;11.17;;;;;;;19.92;86.88;98487.50;4103523;28;20652;-82
2022/07/22 01:27:47;;;;;;;13.77;11.57;;;;;;;19.90;87.96;98483.34;4109013;28;20651;-82
2022/07/22 01:29:50;;;;;;;12.03;10.93;;;;;;;19.88;87.39;98482.69;4125120;28;20630;-82
2022/07/22 01:31:53;;;;;;;13.63;12.17;;;;;;;19.87;88.83;98486.31;4107653;28;20668;-82
2022/07/22 01:33:56;;;;;;;13.00;11.70;;;;;;;19.82;88.61;98477.94;4123870;28;20635;-82
2022/07/22 01:35:59;;;;;;;13.30;12.00;;;;;;;19.80;89.07;98487.88;4104986;28;21062;-82
2022/07/22 01:38:04;;;;;;;13.03;11.70;;;;;;;19.81;89.17;98483.41;4125453;28;20996;-82
2022/07/22 01:40:08;;;;;;;12.20;11.10;;;;;;;19.79;89.16;98478.25;4104067;28;20757;-82
2022/07/22 01:42:11;;;;;;;13.53;12.13;;;;;;;19.80;88.64;98482.59;4125877;28;20629;-82
2022/07/22 01:44:15;;;;;;;12.83;11.60;;;;;;;19.84;88.73;98483.91;4122517;28;20646;-82
2022/07/22 01:46:18;;;;;;;12.00;10.80;;;;;;;19.83;88.26;98492.88;4123465;28;21050;-82
2022/07/22 01:48:22;;;;;;;12.07;10.90;;;;;;;19.83;89.42;98486.72;4107980;28;20640;-82
2022/07/22 01:50:25;;;;;;;13.77;12.40;;;;;;;19.81;88.43;98480.75;4121149;28;20646;-82
2022/07/22 01:52:29;;;;;;;12.57;11.37;;;;;;;19.76;88.94;98483.84;4124332;28;21269;-82
2022/07/22 01:54:34;;;;;;;14.73;11.00;;;;;;;19.73;87.85;98486.81;4110261;28;20722;-82
2022/07/22 01:56:37;;;;;;;13.83;11.80;;;;;;;19.72;87.69;98485.13;4124956;28;21286;-82
2022/07/22 01:58:41;;;;;;;14.93;13.33;;;;;;;19.71;89.16;98485.28;4109853;28;20670;-82
2022/07/22 02:00:45;;;;;;;13.37;11.97;;;;;;;19.67;88.96;98482.13;4110819;28;20641;-82
2022/07/22 02:02:48;;;;;;;14.60;12.10;;;;;;;19.64;88.61;98477.13;4108968;28;20639;-82
2022/07/22 02:04:51;;;;;;;14.80;12.17;;;;;;;19.64;88.70;98477.13;4106745;28;20638;-82
2022/07/22 02:06:54;;;;;;;12.73;11.43;;;;;;;19.64;88.28;98478.94;4104516;28;20666;-82
2022/07/22 02:08:58;;;;;;;13.00;11.70;;;;;;;19.63;88.62;98483.38;4124323;28;21445;-82
2022/07/22 02:11:17;;;;;;;14.50;11.90;;;;;;;19.59;89.51;98490.00;4091501;28;20642;-82
2022/07/22 02:13:33;;;;;;;12.20;10.63;;;;;;;19.56;88.47;98486.78;4124472;28;20661;-82
2022/07/22 02:15:36;;;;;;;12.80;11.50;;;;;;;19.52;89.54;98483.63;4122283;28;20671;-82
2022/07/22 02:17:39;;;;;;;12.30;11.10;;;;;;;19.50;88.50;98480.31;4107581;28;20739;-82
2022/07/22 02:19:44;;;;;;;13.23;11.83;;;;;;;19.48;88.87;98476.13;4106405;28;20651;-82
2022/07/22 02:21:48;;;;;;;12.80;11.50;;;;;;;19.47;88.68;98474.47;4093186;28;20637;-82
2022/07/22 02:23:52;;;;;;;13.30;12.00;;;;;;;19.47;88.43;98474.47;4123240;28;20690;-82
2022/07/22 02:25:55;;;;;;;13.73;11.30;;;;;;;19.46;89.79;98478.91;4108602;28;20719;-82
2022/07/22 02:27:59;;;;;;;14.53;12.27;;;;;;;19.43;89.00;98471.28;4124230;28;21046;-82
2022/07/22 02:30:03;;;;;;;12.90;11.70;;;;;;;19.44;88.59;98470.31;4109771;28;21140;-82
2022/07/22 02:32:06;;;;;;;13.73;12.47;;;;;;;19.47;89.39;98472.66;4108172;28;20667;-82
2022/07/22 02:34:10;;;;;;;13.97;12.57;;;;;;;19.46;88.40;98470.16;4106190;28;20721;-82
2022/07/22 02:36:14;;;;;;;12.23;11.13;;;;;;;19.47;90.10;98471.84;4123364;28;20697;-82
2022/07/22 02:38:19;;;;;;;13.30;11.97;;;;;;;19.47;89.99;98471.84;4107989;28;20732;-82
2022/07/22 02:40:22;;;;;;;16.73;12.83;;;;;;;19.47;89.22;98474.47;4125530;28;20637;-82
2022/07/22 02:42:26;;;;;;;13.20;11.90;;;;;;;19.44;89.17;98478.25;4107397;28;20649;-82
2022/07/22 02:44:30;;;;;;;13.20;11.73;;;;;;;19.38;89.77;98476.19;4105677;28;21093;-82
2022/07/22 02:46:34;;;;;;;13.30;12.07;;;;;;;19.34;88.46;98475.81;4126197;28;20740;-82
2022/07/22 02:48:46;;;;;;;12.97;11.70;;;;;;;19.30;89.57;98475.28;4108103;28;20647;-81
2022/07/22 02:50:52;;;;;;;12.83;11.53;;;;;;;19.28;89.70;98465.84;4122112;28;20658;-82
2022/07/22 02:52:59;;;;;;;12.90;11.70;;;;;;;19.28;89.53;98479.06;4125786;28;20643;-82
2022/07/22 02:55:07;;;;;;;14.17;12.43;;;;;;;19.24;90.05;98462.63;4121595;28;20635;-82
2022/07/22 02:57:10;;;;;;;13.00;11.80;;;;;;;19.24;88.95;98475.03;4122879;28;20750;-82
2022/07/22 02:59:14;;;;;;;13.40;12.00;;;;;;;19.21;89.27;98468.22;4107371;28;20697;-82
2022/07/22 03:01:19;;;;;;;12.83;11.53;;;;;;;19.20;89.99;98476.31;4121924;28;20632;-82
2022/07/22 03:03:31;;;;;;;12.87;11.67;;;;;;;19.15;89.10;98473.28;4125444;28;20764;-82
2022/07/22 03:05:34;;;;;;;13.33;12.03;;;;;;;19.14;90.00;98468.97;4110307;28;20735;-82
2022/07/22 03:07:52;;;;;;;13.03;11.80;;;;;;;19.12;90.56;98470.94;4108925;28;20635;-82
2022/07/22 03:09:56;;;;;;;16.87;12.53;;;;;;;19.12;89.75;98476.22;4108378;28;20640;-82
2022/07/22 03:12:06;;;;;;;13.40;12.00;;;;;;;19.10;90.02;98481.66;4106818;28;20677;-82
2022/07/22 03:14:09;;;;;;;12.97;11.77;;;;;;;19.09;89.83;98476.53;4125401;28;20714;-82
2022/07/22 03:16:12;;;;;;;13.60;12.20;;;;;;;19.08;89.13;98486.28;4122786;28;20638;-82
2022/07/22 03:18:17;;;;;;;13.57;12.13;;;;;;;19.09;89.68;98473.88;4108501;28;20631;-82
2022/07/22 03:20:21;;;;;;;16.20;12.00;;;;;;;19.09;89.96;98473.88;4126727;28;20678;-82
2022/07/22 03:22:24;;;;;;;14.53;13.10;;;;;;;19.06;89.42;98471.53;4124948;28;20647;-82
2022/07/22 03:24:29;;;;;;;12.93;11.77;;;;;;;19.01;88.68;98479.03;4124098;28;21018;-82
2022/07/22 03:26:35;;;;;;;13.67;11.97;;;;;;;18.95;89.03;98483.09;4110147;28;21141;-82
2022/07/22 03:28:39;;;;;;;13.90;12.50;;;;;;;18.93;89.91;98481.59;4103841;28;21400;-82
2022/07/22 03:30:43;;;;;;;14.17;12.77;;;;;;;18.91;89.20;98481.75;4105445;28;20639;-82
2022/07/22 03:32:46;;;;;;;13.93;12.50;;;;;;;18.95;89.92;98493.66;4105823;28;21299;-82
2022/07/22 03:34:54;;;;;;;13.90;12.50;;;;;;;18.97;89.73;98490.88;4121634;28;20623;-82
2022/07/22 03:37:06;;;;;;;14.33;12.60;;;;;;;18.96;90.67;98484.78;4124287;28;20737;-81
2022/07/22 03:39:10;;;;;;;13.67;12.10;;;;;;;18.96;90.78;98484.78;4109257;28;20641;-82
2022/07/22 03:41:12;;;;;;;14.07;12.60;;;;;;;18.95;90.07;98482.28;4109267;28;20643;-82
2022/07/22 03:43:16;;;;;;;14.97;11.90;;;;;;;18.90;90.15;98485.34;4108103;28;20659;-82
2022/07/22 03:45:20;;;;;;;15.07;12.40;;;;;;;18.88;89.96;98478.53;4126980;28;20650;-82
2022/07/22 03:47:23;;;;;;;13.47;12.13;;;;;;;18.84;89.35;98484.25;4107775;28;21352;-82
2022/07/22 03:49:29;;;;;;;13.63;12.30;;;;;;;18.83;89.78;98482.63;4110441;28;21030;-82
2022/07/22 03:51:34;;;;;;;13.03;11.83;;;;;;;18.83;90.15;98482.63;4108839;28;20623;-82
2022/07/22 03:53:37;;;;;;;14.17;12.57;;;;;;;18.84;89.68;98484.25;4123587;28;21305;-82
2022/07/22 03:55:40;;;;;;;13.93;12.53;;;;;;;18.84;90.41;98487.75;4126554;28;20689;-82
2022/07/22 03:57:43;;;;;;;13.13;11.80;;;;;;;18.84;90.46;98487.75;4127405;28;20655;-81
2022/07/22 03:59:58;;;;;;;14.00;12.23;;;;;;;18.85;90.16;98492.03;4126931;28;20630;-81
2022/07/22 04:02:01;;;;;;;13.87;12.50;;;;;;;18.79;89.87;98492.63;4122196;28;21279;-82
2022/07/22 04:04:05;;;;;;;14.83;13.27;;;;;;;18.81;90.07;98495.13;4126799;28;21197;-82
2022/07/22 04:06:12;;;;;;;13.40;12.10;;;;;;;18.80;89.99;98493.47;4126491;28;20670;-82
2022/07/22 04:08:27;;;;;;;14.50;13.17;;;;;;;18.80;90.73;98489.00;4123409;28;20634;-82
2022/07/22 04:10:30;;;;;;;14.20;12.70;;;;;;;18.81;90.81;98488.06;4109725;28;20648;-82
2022/07/22 04:12:35;;;;;;;14.40;13.00;;;;;;;18.84;90.38;98495.69;4111807;28;20675;-82
2022/07/22 04:14:47;;;;;;;14.93;13.43;;;;;;;18.88;90.13;98496.22;4109326;28;20687;-82
2022/07/22 04:16:50;;;;;;;14.70;13.30;;;;;;;18.88;90.86;98490.94;4109606;28;20640;-81
2022/07/22 04:18:54;;;;;;;14.30;12.13;;;;;;;18.88;90.35;98493.56;4091980;28;21256;-82
2022/07/22 04:21:13;;;;;;;14.23;12.80;;;;;;;18.86;90.20;98488.44;4108593;28;20640;-82
2022/07/22 04:23:32;;;;;;;15.37;12.23;;;;;;;18.88;90.81;98489.09;4121798;28;20662;-82
2022/07/22 04:25:45;;;;;;;18.60;12.83;;;;;;;18.88;90.62;98499.69;4120878;28;20645;-81
2022/07/22 04:27:48;;;;;;;13.90;12.33;;;;;;;18.89;90.04;98493.44;4109825;28;21213;-82
2022/07/22 04:29:51;;;;;;;14.60;13.10;;;;;;;18.88;89.44;98494.41;4126104;28;20732;-82
2022/07/22 04:31:54;;;;;;;16.50;13.03;;;;;;;18.90;89.56;98495.09;4124886;28;21333;-82
2022/07/22 04:34:04;;;;;;;15.00;13.10;;;;;;;18.90;90.16;98489.81;4110988;28;20692;-82
2022/07/22 04:36:08;;;;;;;17.27;13.53;;;;;;;18.94;89.80;98489.38;4124830;28;20645;-82
2022/07/22 04:38:11;;;;;;;15.17;13.20;;;;;;;18.96;90.64;98492.69;4126223;28;21181;-82
2022/07/22 04:40:20;;;;;;;21.73;15.23;;;;;;;18.99;90.27;98491.59;4127027;28;20658;-81
2022/07/22 04:42:23;;;;;;;16.60;13.33;;;;;;;19.03;89.84;98485.88;4123636;28;20654;-82
2022/07/22 04:44:26;;;;;;;16.63;13.33;;;;;;;19.08;90.77;98490.75;4123501;28;20637;-82
2022/07/22 04:46:29;;;;;;;17.23;12.93;;;;;;;19.10;90.31;98480.84;4111886;28;20740;-81
2022/07/22 04:48:34;;;;;;;17.07;14.10;;;;;;;19.12;90.56;98489.44;4108769;28;20641;-82
2022/07/22 04:50:38;;;;;;;14.90;13.23;;;;;;;19.15;89.92;98487.34;4124921;28;21077;-82
2022/07/22 04:52:41;;;;;;;15.70;14.10;;;;;;;19.22;90.11;98492.88;4125683;28;21229;-81
2022/07/22 04:54:51;;;;;;;15.57;13.60;;;;;;;19.25;90.67;98487.31;4126624;28;21241;-82
2022/07/22 04:56:56;;;;;;;15.10;13.50;;;;;;;19.30;89.32;98487.69;4110996;28;20729;-82
2022/07/22 04:58:59;;;;;;;15.27;13.60;;;;;;;19.34;89.26;98486.41;4107422;28;20724;-82
2022/07/22 05:01:06;;;;;;;14.70;13.30;;;;;;;19.35;88.89;98493.34;4112306;28;20709;-82
2022/07/22 05:03:10;;;;;;;15.20;13.30;;;;;;;19.39;89.80;98493.75;4126670;28;20650;-81
2022/07/22 05:05:13;;;;;;;16.10;14.47;;;;;;;19.46;90.11;98493.97;4125457;28;20665;-81
2022/07/22 05:07:16;;;;;;;14.73;13.17;;;;;;;19.52;89.64;98490.72;4108370;28;20665;-82
2022/07/22 05:09:19;;;;;;;15.27;13.63;;;;;;;19.57;89.99;98491.94;4105328;28;21093;-81
2022/07/22 05:11:22;;;;;;;14.00;12.60;;;;;;;19.64;90.31;98493.00;4106567;28;20643;-82
2022/07/22 05:13:27;;;;;;;15.10;13.60;;;;;;;19.68;90.10;98499.66;4108868;28;20639;-82
2022/07/22 05:15:30;;;;;;;14.97;13.13;;;;;;;19.72;89.91;98493.06;4124353;28;20669;-82
2022/07/22 05:17:34;;;;;;;13.93;12.43;;;;;;;19.74;89.48;98493.78;4110667;28;21009;-82
2022/07/22 05:19:43;;;;;;;15.53;13.90;;;;;;;19.79;88.65;98494.16;4106789;28;20668;-82
2022/07/22 05:21:47;;;;;;;14.10;12.80;;;;;;;19.83;88.89;98491.03;4123717;28;20650;-82
2022/07/22 05:23:50;;;;;;;15.20;13.60;;;;;;;19.89;89.33;98489.63;4109432;28;21215;-82
2022/07/22 05:25:53;;;;;;;16.30;13.37;;;;;;;19.97;89.86;98490.53;4089546;28;21252;-82
2022/07/22 05:27:56;;;;;;;16.83;13.33;;;;;;;20.03;89.36;98492.56;4111831;28;21369;-82
2022/07/22 05:30:06;;;;;;;14.97;13.57;;;;;;;20.08;87.67;98492.09;4123230;28;20740;-82
2022/07/22 05:32:10;;;;;;;15.40;13.90;;;;;;;20.11;88.54;98491.81;4106790;28;20643;-81
2022/07/22 05:34:14;;;;;;;15.57;14.07;;;;;;;20.17;88.83;98493.84;4124356;28;20643;-82
2022/07/22 05:36:22;;;;;;;14.40;13.10;;;;;;;20.26;88.25;98487.63;4122143;28;20645;-82
2022/07/22 05:38:26;;;;;;;14.53;12.93;;;;;;;20.34;87.41;98488.50;4106328;28;20624;-82
2022/07/22 05:40:29;;;;;;;14.40;13.10;;;;;;;20.42;87.06;98486.72;4106668;28;20640;-82
2022/07/22 05:42:33;;;;;;;14.80;13.30;;;;;;;20.52;88.83;98487.47;4107389;28;21045;-83
2022/07/22 05:44:36;;;;;;;14.10;12.70;;;;;;;20.62;86.86;98493.47;4108844;28;20642;-84
2022/07/22 05:46:41;;;;;;;15.80;12.70;;;;;;;20.80;87.73;98485.50;4121341;28;21115;-82
2022/07/22 05:48:44;;;;;;;14.20;12.77;;;;;;;21.09;87.18;98495.56;4107695;28;21759;-84
2022/07/22 05:50:48;;;;;;;14.63;12.37;;;;;;;21.38;86.25;98496.84;4122624;28;20680;-82
2022/07/22 05:52:51;;;;;;;14.80;13.20;;;;;;;21.68;84.87;98496.31;4107034;28;20645;-83
2022/07/22 05:54:54;;;;;;;13.63;12.23;;;;;;;21.99;83.77;98500.81;4124613;28;20695;-83
2022/07/22 05:56:58;;;;;;;14.90;13.13;;;;;;;22.33;83.11;98505.00;4111512;28;20652;-82
2022/07/22 05:59:01;;;;;;;13.37;12.07;;;;;;;22.56;81.79;98505.97;4127084;28;20639;-83
2022/07/22 06:01:05;;;;;;;17.30;12.57;;;;;;;22.82;81.62;98506.56;4108934;28;20629;-83
2022/07/22 06:03:09;;;;;;;14.00;12.60;;;;;;;23.09;80.76;98508.84;4125116;28;21185;-84
2022/07/22 06:05:20;;;;;;;13.80;12.40;;;;;;;23.34;80.39;98498.75;4121554;28;20675;-83
2022/07/22 06:07:43;;;;;;;13.73;12.43;;;;;;;23.63;77.78;98503.44;4124308;28;21058;-83
2022/07/22 06:09:51;;;;;;;13.60;12.30;;;;;;;23.84;77.17;98509.81;4103743;28;20650;-82
2022/07/22 06:11:54;;;;;;;14.00;12.50;;;;;;;24.07;77.58;98500.84;4110380;28;20638;-82
2022/07/22 06:13:57;;;;;;;17.10;12.80;;;;;;;24.34;77.02;98501.13;4108959;28;20654;-83
2022/07/22 06:16:00;;;;;;;13.90;12.50;;;;;;;24.61;76.54;98507.72;4112309;28;20692;-82
2022/07/22 06:18:04;;;;;;;14.70;13.17;;;;;;;24.86;75.11;98507.28;4125234;28;20639;-82
2022/07/22 06:20:10;;;;;;;14.60;12.63;;;;;;;25.10;75.46;98505.19;4109992;28;21468;-82
2022/07/22 06:22:13;;;;;;;13.37;11.97;;;;;;;25.33;74.14;98503.25;4109344;28;20641;-82
2022/07/22 06:24:17;;;;;;;14.50;12.40;;;;;;;25.51;73.75;98504.50;4125582;28;20795;-82
2022/07/22 06:26:20;;;;;;;13.20;11.90;;;;;;;25.70;72.97;98506.63;4123655;28;20630;-81
2022/07/22 06:28:23;;;;;;;13.50;12.20;;;;;;;25.88;72.28;98497.16;4124437;28;20902;-82
2022/07/22 06:30:26;;;;;;;13.00;11.60;;;;;;;26.09;71.89;98503.34;4123166;28;20631;-82
2022/07/22 06:32:29;;;;;;;13.00;11.73;;;;;;;26.29;71.62;98514.25;4123865;28;21064;-82
2022/07/22 06:34:32;;;;;;;13.37;11.93;;;;;;;26.47;71.44;98509.28;4104194;28;20730;-82
2022/07/22 06:36:40;;;;;;;13.17;11.90;;;;;;;26.63;69.53;98504.47;4117882;28;20654;-83
2022/07/22 06:38:44;;;;;;;12.47;11.27;;;;;;;26.82;69.20;98503.78;4110879;28;21045;-83
2022/07/22 06:40:52;;;;;;;12.80;11.60;;;;;;;27.01;69.33;98503.13;4109535;28;21012;-83
2022/07/22 06:43:11;;;;;;;12.20;11.00;;;;;;;27.14;67.30;98501.34;4125021;28;20683;-83
2022/07/22 06:45:43;;;;;;;12.27;11.03;;;;;;;27.30;69.16;98503.69;4104501;28;20733;-83
2022/07/22 06:47:57;;;;;;;13.77;12.37;;;;;;;27.53;67.71;98499.72;4127793;28;21254;-83
2022/07/22 06:50:00;;;;;;;12.27;11.07;;;;;;;27.79;66.08;98499.78;4114024;28;21034;-83
2022/07/22 06:52:06;;;;;;;12.90;11.60;;;;;;;28.03;65.08;98500.06;4123356;28;20739;-82
2022/07/22 06:54:10;;;;;;;11.80;10.80;;;;;;;28.22;64.63;98500.13;4126477;28;20637;-83
2022/07/22 06:56:13;;;;;;;11.27;10.17;;;;;;;28.22;63.60;98497.44;4109776;28;20727;-83
2022/07/22 06:58:19;;;;;;;12.40;11.20;;;;;;;28.35;63.80;98502.81;4124247;28;20646;-83
2022/07/22 07:00:23;;;;;;;14.53;10.40;;;;;;;28.48;64.22;98492.09;4125674;28;20623;-83
2022/07/22 07:02:44;;;;;;;12.10;10.90;;;;;;;28.74;63.36;98500.16;4109169;28;20619;-83
2022/07/22 07:04:48;;;;;;;14.53;12.17;;;;;;;28.90;62.98;98497.88;4128452;28;20783;-83
2022/07/22 07:06:53;;;;;;;12.50;11.40;;;;;;;29.05;63.07;98501.16;4109450;28;21242;-83
2022/07/22 07:09:10;;;;;;;11.90;10.63;;;;;;;29.22;61.72;98492.41;4111896;28;20632;-82
2022/07/22 07:11:16;;;;;;;13.00;11.50;;;;;;;29.32;62.37;98494.66;4113121;28;21239;-83
2022/07/22 07:13:20;;;;;;;12.47;11.37;;;;;;;29.36;62.20;98496.72;4127272;28;20757;-83
2022/07/22 07:15:23;;;;;;;12.27;11.10;;;;;;;29.47;61.27;98490.72;4123434;28;20631;-83
2022/07/22 07:17:33;;;;;;;11.83;10.83;;;;;;;29.61;61.15;98484.22;4124871;28;20631;-83
2022/07/22 07:19:39;;;;;;;12.03;10.90;;;;;;;29.64;60.81;98484.59;4111112;28;20640;-83
2022/07/22 07:21:42;;;;;;;12.80;11.50;;;;;;;29.66;59.59;98482.53;4131309;28;20995;-83
2022/07/22 07:23:52;;;;;;;12.20;11.00;;;;;;;29.71;60.29;98469.28;4106308;28;20671;-83
2022/07/22 07:25:56;;;;;;;12.27;11.17;;;;;;;29.78;61.16;98471.91;4126213;28;21069;-83
2022/07/22 07:28:00;;;;;;;12.87;11.73;;;;;;;29.86;60.11;98472.53;4105545;28;21036;-85
2022/07/22 07:30:38;;;;;;;13.57;11.70;;;;;;;29.77;60.33;98471.09;4103350;28;20636;-84
2022/07/22 07:32:42;;;;;;;13.20;12.03;;;;;;;29.78;60.96;98467.34;4091725;28;20636;-84
2022/07/22 07:34:45;;;;;;;12.60;11.60;;;;;;;29.87;60.41;98458.00;4108086;28;20636;-83
2022/07/22 07:36:48;;;;;;;12.17;10.97;;;;;;;30.05;61.04;98458.09;4125800;28;20647;-82
2022/07/22 07:38:51;;;;;;;13.60;12.03;;;;;;;30.21;59.58;98463.78;4109485;28;20638;-82
2022/07/22 07:40:57;;;;;;;13.53;12.20;;;;;;;30.37;60.64;98467.84;4108794;28;20657;-82
2022/07/22 07:43:00;;;;;;;12.87;11.67;;;;;;;30.46;61.29;98467.34;4106536;28;20642;-82
2022/07/22 07:45:07;;;;;;;13.80;12.60;;;;;;;30.60;60.30;98458.13;4120580;28;20639;-82
2022/07/22 07:47:12;;;;;;;12.00;11.00;;;;;;;30.76;60.48;98452.16;4125280;28;20631;-83
2022/07/22 07:49:15;;;;;;;14.60;11.93;;;;;;;30.88;58.97;98459.31;4124049;28;20644;-82
2022/07/22 07:51:18;;;;;;;13.00;11.90;;;;;;;30.92;59.09;98457.81;4125118;28;20628;-82
2022/07/22 07:53:21;;;;;;;11.80;10.60;;;;;;;30.94;59.17;98451.16;4108117;28;20659;-82
2022/07/22 07:55:25;;;;;;;12.90;11.40;;;;;;;30.94;59.72;98447.63;4124020;28;21316;-82
2022/07/22 07:57:30;;;;;;;13.77;12.47;;;;;;;31.10;59.58;98442.47;4107485;28;20672;-81
2022/07/22 07:59:33;;;;;;;13.30;12.00;;;;;;;31.14;59.13;98441.00;4125678;28;20653;-81
2022/07/22 08:01:38;;;;;;;14.07;12.77;;;;;;;31.16;57.87;98438.06;4122497;28;20642;-83
2022/07/22 08:04:01;;;;;;;13.50;12.33;;;;;;;31.06;58.80;98430.50;4112259;28;20802;-83
2022/07/22 08:06:24;;;;;;;13.50;12.20;;;;;;;31.21;58.98;98439.00;4127114;28;20669;-82
2022/07/22 08:08:27;;;;;;;13.10;11.93;;;;;;;31.30;58.75;98431.47;4107794;28;20642;-83
2022/07/22 08:10:32;;;;;;;13.77;12.53;;;;;;;31.50;58.16;98432.91;4124830;28;20679;-83
2022/07/22 08:13:14;;;;;;;13.83;12.63;;;;;;;31.63;57.70;98430.00;4111730;28;20639;-83
2022/07/22 08:15:18;;;;;;;13.50;12.30;;;;;;;31.69;57.04;98435.31;4111750;28;20722;-83
2022/07/22 08:17:24;;;;;;;12.70;11.60;;;;;;;31.63;56.94;98425.41;4106977;28;20655;-83
2022/07/22 08:19:28;;;;;;;13.43;12.23;;;;;;;31.49;58.06;98428.53;4106434;28;20654;-83
2022/07/22 08:21:31;;;;;;;13.40;12.10;;;;;;;31.54;58.15;98434.91;4108936;28;20632;-83
2022/07/22 08:23:51;;;;;;;13.43;12.33;;;;;;;31.58;57.67;98433.41;4123828;28;20701;-83
2022/07/22 08:25:55;;;;;;;13.30;12.00;;;;;;;31.60;56.09;98428.56;4107258;28;20635;-83
2022/07/22 08:27:58;;;;;;;13.30;11.90;;;;;;;31.69;56.47;98424.50;4088921;28;20637;-83
2022/07/22 08:30:04;;;;;;;13.57;12.27;;;;;;;31.77;57.53;98423.38;4112088;28;20647;-83
2022/07/22 08:32:07;;;;;;;12.70;11.50;;;;;;;31.92;57.25;98433.56;4122039;28;20639;-82
2022/07/22 08:34:10;;;;;;;12.80;11.80;;;;;;;31.95;56.12;98433.09;4126356;28;20627;-83
2022/07/22 08:36:14;;;;;;;12.27;10.90;;;;;;;32.04;56.94;98426.31;4107556;28;20679;-83
2022/07/22 08:38:17;;;;;;;12.83;11.63;;;;;;;32.06;55.97;98416.09;4125260;28;20641;-84
2022/07/22 08:40:21;;;;;;;13.47;12.37;;;;;;;32.12;56.01;98423.28;4108746;28;20633;-82
2022/07/22 08:42:24;;;;;;;12.93;11.73;;;;;;;32.08;58.37;98419.38;4103971;28;20648;-82
2022/07/22 08:44:30;;;;;;;12.60;11.40;;;;;;;32.11;56.53;98418.91;4120224;28;20730;-82
2022/07/22 08:46:35;;;;;;;11.93;10.83;;;;;;;32.15;57.99;98422.00;4126023;28;20623;-82
2022/07/22 08:49:01;;;;;;;12.47;11.37;;;;;;;32.22;55.66;98417.28;4098204;28;21205;-83
2022/07/22 08:51:25;;;;;;;13.07;11.97;;;;;;;32.36;56.11;98411.44;4090067;28;20782;-83
2022/07/22 08:53:46;;;;;;;11.20;10.30;;;;;;;32.35;56.42;98399.81;4126529;28;21452;-83
2022/07/22 08:55:50;;;;;;;11.67;10.60;;;;;;;32.42;56.79;98413.22;4110408;28;20691;-82
2022/07/22 08:57:53;;;;;;;11.97;10.93;;;;;;;32.48;55.87;98407.72;4127264;28;20667;-82
2022/07/22 08:59:58;;;;;;;11.90;10.90;;;;;;;32.50;56.78;98402.09;4109352;28;21065;-83
2022/07/22 09:02:04;;;;;;;11.50;10.50;;;;;;;32.57;56.19;98413.63;4108485;28;21216;-83
2022/07/22 09:04:10;;;;;;;11.87;10.87;;;;;;;32.61;54.75;98403.97;4121468;28;20987;-83
2022/07/22 09:06:13;;;;;;;12.57;11.47;;;;;;;32.56;55.09;98396.56;4110679;28;20663;-83
2022/07/22 09:08:17;;;;;;;17.80;16.13;;;;;;;32.60;56.40;98394.22;4114633;28;20632;-83
2022/07/22 09:10:33;;;;;;;12.23;11.10;;;;;;;32.64;55.86;98389.97;4105741;28;21217;-84
2022/07/22 09:12:59;;;;;;;12.43;11.33;;;;;;;32.65;54.58;98395.16;4111311;28;20964;-83
2022/07/22 09:15:36;;;;;;;12.27;11.10;;;;;;;32.50;54.57;98389.38;4104960;28;20644;-83
2022/07/22 09:18:00;;;;;;;15.00;11.60;;;;;;;32.26;54.37;98389.59;4111418;28;20663;-83
2022/07/22 09:20:17;;;;;;;11.27;10.27;;;;;;;31.97;57.33;98384.25;4109492;28;20735;-84
2022/07/22 09:22:49;;;;;;;13.10;11.70;;;;;;;32.22;55.88;98388.41;4120712;28;20634;-83
2022/07/22 09:24:56;;;;;;;11.73;10.63;;;;;;;32.22;54.62;98377.63;4109658;28;20638;-84
2022/07/22 09:27:09;;;;;;;12.00;11.00;;;;;;;32.28;57.68;98382.09;4111601;28;20731;-83
2022/07/22 09:29:30;;;;;;;11.60;10.37;;;;;;;32.48;55.97;98382.59;4128100;28;20646;-83
2022/07/22 09:31:51;;;;;;;12.33;11.23;;;;;;;32.57;55.94;98378.47;4126910;28;20627;-84
2022/07/22 09:34:27;;;;;;;11.13;10.13;;;;;;;32.71;56.76;98380.69;4127332;28;20628;-83
2022/07/22 09:36:34;;;;;;;11.87;10.70;;;;;;;32.77;57.19;98382.44;4127903;28;20620;-83
2022/07/22 09:38:37;;;;;;;11.30;10.30;;;;;;;32.79;55.52;98383.00;4103833;28;20660;-83
2022/07/22 09:40:42;;;;;;;12.40;10.60;;;;;;;32.77;55.83;98371.63;4113076;28;20658;-84